sensor_id;sensor_type;location;lat;lon;timestamp;temperature;humidity
21787;DHT22;11055;50.870;4.316;2022-07-26T00:01:58;19.20;99.90
21787;DHT22;11055;50.870;4.316;2022-07-26T00:04:23;19.20;99.90
21787;DHT22;11055;50.870;4.316;2022-07-26T00:06:49;19.30;99.90
21787;DHT22;11055;50.870;4.316;2022-07-26T00:09:14;19.30;99.90
21787;DHT22;11055;50.870;4.316;2022-07-26T00:11:40;19.40;99.90
21787;DHT22;11055;50.870;4.316;2022-07-26T00:14:06;19.50;99.90
21787;DHT22;11055;50.870;4.316;2022-07-26T00:16:32;19.60;99.90
21787;DHT22;11055;50.870;4.316;2022-07-26T00:18:58;19.60;99.90
21787;DHT22;11055;50.870;4.316;2022-07-26T00:21:23;19.70;99.90
21787;DHT22;11055;50.870;4.316;2022-07-26T00:23:49;19.70;99.90
21787;DHT22;11055;50.870;4.316;2022-07-26T00:26:15;19.80;99.90
21787;DHT22;11055;50.870;4.316;2022-07-26T00:28:40;19.80;99.90
21787;DHT22;11055;50.870;4.316;2022-07-26T00:31:06;19.90;99.90
21787;DHT22;11055;50.870;4.316;2022-07-26T00:33:33;19.90;99.90
21787;DHT22;11055;50.870;4.316;2022-07-26T00:35:58;19.90;99.90
21787;DHT22;11055;50.870;4.316;2022-07-26T00:38:24;19.80;99.90
21787;DHT22;11055;50.870;4.316;2022-07-26T00:40:49;19.70;99.90
21787;DHT22;11055;50.870;4.316;2022-07-26T00:43:15;19.60;99.90
21787;DHT22;11055;50.870;4.316;2022-07-26T00:45:40;19.60;99.90
21787;DHT22;11055;50.870;4.316;2022-07-26T00:48:06;19.40;99.90
21787;DHT22;11055;50.870;4.316;2022-07-26T00:50:32;19.30;99.90
21787;DHT22;11055;50.870;4.316;2022-07-26T00:52:57;19.40;99.90
21787;DHT22;11055;50.870;4.316;2022-07-26T00:55:23;19.40;99.90
21787;DHT22;11055;50.870;4.316;2022-07-26T00:57:48;19.40;99.90
21787;DHT22;11055;50.870;4.316;2022-07-26T01:00:18;19.40;99.90
21787;DHT22;11055;50.870;4.316;2022-07-26T01:02:45;19.40;99.90
21787;DHT22;11055;50.870;4.316;2022-07-26T01:05:10;19.40;99.90
21787;DHT22;11055;50.870;4.316;2022-07-26T01:07:36;19.50;99.90
21787;DHT22;11055;50.870;4.316;2022-07-26T01:10:07;19.40;99.90
21787;DHT22;11055;50.870;4.316;2022-07-26T01:12:34;19.40;99.90
21787;DHT22;11055;50.870;4.316;2022-07-26T01:15:00;19.40;99.90
21787;DHT22;11055;50.870;4.316;2022-07-26T01:17:25;19.50;99.90
21787;DHT22;11055;50.870;4.316;2022-07-26T01:19:51;19.50;99.90
21787;DHT22;11055;50.870;4.316;2022-07-26T01:22:16;19.60;99.90
21787;DHT22;11055;50.870;4.316;2022-07-26T01:24:42;19.50;99.90
21787;DHT22;11055;50.870;4.316;2022-07-26T01:27:07;19.40;99.90
21787;DHT22;11055;50.870;4.316;2022-07-26T01:29:33;19.40;99.90
21787;DHT22;11055;50.870;4.316;2022-07-26T01:31:59;19.40;99.90
21787;DHT22;11055;50.870;4.316;2022-07-26T01:34:25;19.20;99.90
21787;DHT22;11055;50.870;4.316;2022-07-26T01:36:51;19.10;99.90
21787;DHT22;11055;50.870;4.316;2022-07-26T01:39:18;19.10;99.90
21787;DHT22;11055;50.870;4.316;2022-07-26T01:41:44;19.30;99.90
21787;DHT22;11055;50.870;4.316;2022-07-26T01:44:09;19.20;99.90
21787;DHT22;11055;50.870;4.316;2022-07-26T01:46:35;19.00;99.90
21787;DHT22;11055;50.870;4.316;2022-07-26T01:49:00;18.80;99.90
21787;DHT22;11055;50.870;4.316;2022-07-26T01:51:26;18.70;99.90
21787;DHT22;11055;50.870;4.316;2022-07-26T01:53:52;18.60;99.90
21787;DHT22;11055;50.870;4.316;2022-07-26T01:56:17;18.60;99.90
21787;DHT22;11055;50.870;4.316;2022-07-26T01:58:43;18.70;99.90
21787;DHT22;11055;50.870;4.316;2022-07-26T02:01:08;18.90;99.90
21787;DHT22;11055;50.870;4.316;2022-07-26T02:03:34;19.00;99.90
21787;DHT22;11055;50.870;4.316;2022-07-26T02:06:00;19.00;99.90
21787;DHT22;11055;50.870;4.316;2022-07-26T02:08:25;18.90;99.90
21787;DHT22;11055;50.870;4.316;2022-07-26T02:10:51;18.80;99.90
21787;DHT22;11055;50.870;4.316;2022-07-26T02:13:36;18.90;99.90
21787;DHT22;11055;50.870;4.316;2022-07-26T02:16:02;19.00;99.90
21787;DHT22;11055;50.870;4.316;2022-07-26T02:18:29;19.00;99.90
21787;DHT22;11055;50.870;4.316;2022-07-26T02:20:55;18.80;99.90
21787;DHT22;11055;50.870;4.316;2022-07-26T02:23:21;18.80;99.90
21787;DHT22;11055;50.870;4.316;2022-07-26T02:25:47;18.80;99.90
21787;DHT22;11055;50.870;4.316;2022-07-26T02:28:13;18.70;99.90
21787;DHT22;11055;50.870;4.316;2022-07-26T02:30:39;18.70;99.90
21787;DHT22;11055;50.870;4.316;2022-07-26T02:33:04;18.80;99.90
21787;DHT22;11055;50.870;4.316;2022-07-26T02:35:30;18.80;99.90
21787;DHT22;11055;50.870;4.316;2022-07-26T02:38:06;18.80;99.90
21787;DHT22;11055;50.870;4.316;2022-07-26T02:40:32;18.70;99.90
21787;DHT22;11055;50.870;4.316;2022-07-26T02:42:58;18.60;99.90
21787;DHT22;11055;50.870;4.316;2022-07-26T02:45:24;18.60;99.90
21787;DHT22;11055;50.870;4.316;2022-07-26T02:47:51;18.50;99.90
21787;DHT22;11055;50.870;4.316;2022-07-26T02:50:18;18.50;99.90
21787;DHT22;11055;50.870;4.316;2022-07-26T02:52:44;18.40;99.90
21787;DHT22;11055;50.870;4.316;2022-07-26T02:55:13;18.30;99.90
21787;DHT22;11055;50.870;4.316;2022-07-26T02:57:39;18.20;99.90
21787;DHT22;11055;50.870;4.316;2022-07-26T03:00:05;18.30;99.90
21787;DHT22;11055;50.870;4.316;2022-07-26T03:02:30;18.40;99.90
21787;DHT22;11055;50.870;4.316;2022-07-26T03:04:56;18.40;99.90
21787;DHT22;11055;50.870;4.316;2022-07-26T03:07:21;18.50;99.90
21787;DHT22;11055;50.870;4.316;2022-07-26T03:09:47;18.50;99.90
21787;DHT22;11055;50.870;4.316;2022-07-26T03:12:12;18.50;99.90
21787;DHT22;11055;50.870;4.316;2022-07-26T03:14:38;18.50;99.90
21787;DHT22;11055;50.870;4.316;2022-07-26T03:17:03;18.50;99.90
21787;DHT22;11055;50.870;4.316;2022-07-26T03:19:29;18.60;99.90
21787;DHT22;11055;50.870;4.316;2022-07-26T03:21:54;18.70;99.90
21787;DHT22;11055;50.870;4.316;2022-07-26T03:24:20;18.60;99.90
21787;DHT22;11055;50.870;4.316;2022-07-26T03:26:45;18.50;99.90
21787;DHT22;11055;50.870;4.316;2022-07-26T03:29:11;18.30;99.90
21787;DHT22;11055;50.870;4.316;2022-07-26T03:31:36;18.20;99.90
21787;DHT22;11055;50.870;4.316;2022-07-26T03:34:02;18.20;99.90
21787;DHT22;11055;50.870;4.316;2022-07-26T03:36:27;18.30;99.90
21787;DHT22;11055;50.870;4.316;2022-07-26T03:38:53;18.30;99.90
21787;DHT22;11055;50.870;4.316;2022-07-26T03:41:18;18.40;99.90
21787;DHT22;11055;50.870;4.316;2022-07-26T03:43:44;18.60;99.90
21787;DHT22;11055;50.870;4.316;2022-07-26T03:46:09;18.60;99.90
21787;DHT22;11055;50.870;4.316;2022-07-26T03:48:35;18.70;99.90
21787;DHT22;11055;50.870;4.316;2022-07-26T03:51:01;18.80;99.90
21787;DHT22;11055;50.870;4.316;2022-07-26T03:53:26;18.80;99.90
21787;DHT22;11055;50.870;4.316;2022-07-26T03:55:52;18.70;99.90
21787;DHT22;11055;50.870;4.316;2022-07-26T03:58:36;18.70;99.90
21787;DHT22;11055;50.870;4.316;2022-07-26T04:01:02;18.60;99.90
21787;DHT22;11055;50.870;4.316;2022-07-26T04:03:27;18.70;99.90
21787;DHT22;11055;50.870;4.316;2022-07-26T04:05:53;18.70;99.90
21787;DHT22;11055;50.870;4.316;2022-07-26T04:08:19;18.90;99.90
21787;DHT22;11055;50.870;4.316;2022-07-26T04:10:45;18.90;99.90
21787;DHT22;11055;50.870;4.316;2022-07-26T04:13:11;18.70;99.90
21787;DHT22;11055;50.870;4.316;2022-07-26T04:15:36;18.70;99.90
21787;DHT22;11055;50.870;4.316;2022-07-26T04:18:02;18.70;99.90
21787;DHT22;11055;50.870;4.316;2022-07-26T04:20:27;18.60;99.90
21787;DHT22;11055;50.870;4.316;2022-07-26T04:22:53;18.50;99.90
21787;DHT22;11055;50.870;4.316;2022-07-26T04:25:18;18.40;99.90
21787;DHT22;11055;50.870;4.316;2022-07-26T04:27:44;18.30;99.90
21787;DHT22;11055;50.870;4.316;2022-07-26T04:30:10;18.30;99.90
21787;DHT22;11055;50.870;4.316;2022-07-26T04:32:35;18.40;99.90
21787;DHT22;11055;50.870;4.316;2022-07-26T04:35:01;18.40;99.90
21787;DHT22;11055;50.870;4.316;2022-07-26T04:37:26;18.50;99.90
21787;DHT22;11055;50.870;4.316;2022-07-26T04:39:52;18.60;99.90
21787;DHT22;11055;50.870;4.316;2022-07-26T04:42:17;18.60;99.90
21787;DHT22;11055;50.870;4.316;2022-07-26T04:44:43;18.60;99.90
21787;DHT22;11055;50.870;4.316;2022-07-26T04:47:08;18.60;99.90
21787;DHT22;11055;50.870;4.316;2022-07-26T04:49:34;18.60;99.90
21787;DHT22;11055;50.870;4.316;2022-07-26T04:51:59;18.60;99.90
21787;DHT22;11055;50.870;4.316;2022-07-26T04:54:25;18.70;99.90
21787;DHT22;11055;50.870;4.316;2022-07-26T04:56:51;18.60;99.90
21787;DHT22;11055;50.870;4.316;2022-07-26T04:59:16;18.50;99.90
21787;DHT22;11055;50.870;4.316;2022-07-26T05:01:42;18.60;99.90
21787;DHT22;11055;50.870;4.316;2022-07-26T05:04:08;18.60;99.90
21787;DHT22;11055;50.870;4.316;2022-07-26T05:06:33;18.60;99.90
21787;DHT22;11055;50.870;4.316;2022-07-26T05:08:59;18.50;99.90
21787;DHT22;11055;50.870;4.316;2022-07-26T05:11:25;18.50;99.90
21787;DHT22;11055;50.870;4.316;2022-07-26T05:13:50;18.50;99.90
21787;DHT22;11055;50.870;4.316;2022-07-26T05:16:16;18.40;99.90
21787;DHT22;11055;50.870;4.316;2022-07-26T05:18:41;18.30;99.90
21787;DHT22;11055;50.870;4.316;2022-07-26T05:21:07;18.40;99.90
21787;DHT22;11055;50.870;4.316;2022-07-26T05:23:32;18.40;99.90
21787;DHT22;11055;50.870;4.316;2022-07-26T05:25:58;18.40;99.90
21787;DHT22;11055;50.870;4.316;2022-07-26T05:28:24;18.40;99.90
21787;DHT22;11055;50.870;4.316;2022-07-26T05:30:51;18.30;99.90
21787;DHT22;11055;50.870;4.316;2022-07-26T05:33:16;18.50;99.90
21787;DHT22;11055;50.870;4.316;2022-07-26T05:35:42;18.40;99.90
21787;DHT22;11055;50.870;4.316;2022-07-26T05:38:07;18.40;99.90
21787;DHT22;11055;50.870;4.316;2022-07-26T05:40:33;18.60;99.90
21787;DHT22;11055;50.870;4.316;2022-07-26T05:42:58;18.60;99.90
21787;DHT22;11055;50.870;4.316;2022-07-26T05:45:24;18.70;99.90
21787;DHT22;11055;50.870;4.316;2022-07-26T05:47:50;18.60;99.90
21787;DHT22;11055;50.870;4.316;2022-07-26T05:50:15;18.60;99.90
21787;DHT22;11055;50.870;4.316;2022-07-26T05:52:41;18.60;99.90
21787;DHT22;11055;50.870;4.316;2022-07-26T05:55:08;18.70;99.90
21787;DHT22;11055;50.870;4.316;2022-07-26T05:57:34;18.70;99.90
21787;DHT22;11055;50.870;4.316;2022-07-26T05:59:59;18.80;99.90
21787;DHT22;11055;50.870;4.316;2022-07-26T06:02:25;19.00;99.90
21787;DHT22;11055;50.870;4.316;2022-07-26T06:04:50;18.90;99.90
21787;DHT22;11055;50.870;4.316;2022-07-26T06:07:16;18.90;99.90
21787;DHT22;11055;50.870;4.316;2022-07-26T06:09:41;19.00;99.90
21787;DHT22;11055;50.870;4.316;2022-07-26T06:12:07;18.90;99.90
21787;DHT22;11055;50.870;4.316;2022-07-26T06:14:33;18.90;99.90
21787;DHT22;11055;50.870;4.316;2022-07-26T06:16:58;18.90;99.90
21787;DHT22;11055;50.870;4.316;2022-07-26T06:19:24;19.00;99.90
21787;DHT22;11055;50.870;4.316;2022-07-26T06:21:49;19.00;99.90
21787;DHT22;11055;50.870;4.316;2022-07-26T06:24:15;19.10;99.90
21787;DHT22;11055;50.870;4.316;2022-07-26T06:26:40;19.10;99.90
21787;DHT22;11055;50.870;4.316;2022-07-26T06:29:06;19.00;99.90
21787;DHT22;11055;50.870;4.316;2022-07-26T06:31:32;18.90;99.90
21787;DHT22;11055;50.870;4.316;2022-07-26T06:33:57;18.80;99.90
21787;DHT22;11055;50.870;4.316;2022-07-26T06:36:25;18.80;99.90
21787;DHT22;11055;50.870;4.316;2022-07-26T06:38:50;18.80;99.90
21787;DHT22;11055;50.870;4.316;2022-07-26T06:41:16;18.80;99.90
21787;DHT22;11055;50.870;4.316;2022-07-26T06:43:41;18.80;99.90
21787;DHT22;11055;50.870;4.316;2022-07-26T06:46:07;18.70;99.90
21787;DHT22;11055;50.870;4.316;2022-07-26T06:48:33;18.60;99.90
21787;DHT22;11055;50.870;4.316;2022-07-26T06:50:59;18.70;99.90
21787;DHT22;11055;50.870;4.316;2022-07-26T06:53:24;18.80;99.90
21787;DHT22;11055;50.870;4.316;2022-07-26T06:55:50;18.80;99.90
21787;DHT22;11055;50.870;4.316;2022-07-26T06:58:15;18.70;99.90
21787;DHT22;11055;50.870;4.316;2022-07-26T07:00:41;18.60;99.90
21787;DHT22;11055;50.870;4.316;2022-07-26T07:03:06;18.70;99.90
21787;DHT22;11055;50.870;4.316;2022-07-26T07:05:32;18.80;99.90
21787;DHT22;11055;50.870;4.316;2022-07-26T07:07:57;18.80;99.90
21787;DHT22;11055;50.870;4.316;2022-07-26T07:10:23;18.70;99.90
21787;DHT22;11055;50.870;4.316;2022-07-26T07:12:50;18.60;99.90
21787;DHT22;11055;50.870;4.316;2022-07-26T07:15:15;18.70;99.90
21787;DHT22;11055;50.870;4.316;2022-07-26T07:17:41;18.70;99.90
21787;DHT22;11055;50.870;4.316;2022-07-26T07:20:06;18.80;99.90
21787;DHT22;11055;50.870;4.316;2022-07-26T07:22:32;18.70;99.90
21787;DHT22;11055;50.870;4.316;2022-07-26T07:24:57;18.70;99.90
21787;DHT22;11055;50.870;4.316;2022-07-26T07:27:23;18.70;99.90
21787;DHT22;11055;50.870;4.316;2022-07-26T07:29:48;18.70;99.90
21787;DHT22;11055;50.870;4.316;2022-07-26T07:32:14;18.70;99.90
21787;DHT22;11055;50.870;4.316;2022-07-26T07:34:39;18.70;99.90
21787;DHT22;11055;50.870;4.316;2022-07-26T07:37:05;18.70;99.90
21787;DHT22;11055;50.870;4.316;2022-07-26T07:39:30;18.60;99.90
21787;DHT22;11055;50.870;4.316;2022-07-26T07:41:56;18.60;99.90
21787;DHT22;11055;50.870;4.316;2022-07-26T07:44:21;18.70;99.90
21787;DHT22;11055;50.870;4.316;2022-07-26T07:46:47;18.80;99.90
21787;DHT22;11055;50.870;4.316;2022-07-26T07:49:13;18.90;99.90
21787;DHT22;11055;50.870;4.316;2022-07-26T07:51:40;18.90;99.90
21787;DHT22;11055;50.870;4.316;2022-07-26T07:54:05;18.90;99.90
21787;DHT22;11055;50.870;4.316;2022-07-26T07:56:32;19.00;99.90
21787;DHT22;11055;50.870;4.316;2022-07-26T07:58:58;19.00;99.90
21787;DHT22;11055;50.870;4.316;2022-07-26T08:01:23;18.90;99.90
21787;DHT22;11055;50.870;4.316;2022-07-26T08:03:49;18.80;99.90
21787;DHT22;11055;50.870;4.316;2022-07-26T08:06:14;18.80;99.90
21787;DHT22;11055;50.870;4.316;2022-07-26T08:08:40;18.90;99.90
21787;DHT22;11055;50.870;4.316;2022-07-26T08:11:05;19.00;99.90
21787;DHT22;11055;50.870;4.316;2022-07-26T08:13:31;18.90;99.90
21787;DHT22;11055;50.870;4.316;2022-07-26T08:15:56;18.90;99.90
21787;DHT22;11055;50.870;4.316;2022-07-26T08:18:22;19.00;99.90
21787;DHT22;11055;50.870;4.316;2022-07-26T08:20:49;19.00;99.90
21787;DHT22;11055;50.870;4.316;2022-07-26T08:23:15;19.10;99.90
21787;DHT22;11055;50.870;4.316;2022-07-26T08:25:40;19.10;99.90
21787;DHT22;11055;50.870;4.316;2022-07-26T08:28:06;19.20;99.90
21787;DHT22;11055;50.870;4.316;2022-07-26T08:30:31;19.20;99.90
21787;DHT22;11055;50.870;4.316;2022-07-26T08:32:57;19.10;99.90
21787;DHT22;11055;50.870;4.316;2022-07-26T08:35:25;19.20;99.90
21787;DHT22;11055;50.870;4.316;2022-07-26T08:37:50;19.30;99.90
21787;DHT22;11055;50.870;4.316;2022-07-26T08:40:16;19.30;99.90
21787;DHT22;11055;50.870;4.316;2022-07-26T08:42:54;19.20;99.90
21787;DHT22;11055;50.870;4.316;2022-07-26T08:45:21;19.30;99.90
21787;DHT22;11055;50.870;4.316;2022-07-26T08:47:47;19.40;99.90
21787;DHT22;11055;50.870;4.316;2022-07-26T08:50:12;19.50;99.90
21787;DHT22;11055;50.870;4.316;2022-07-26T08:52:41;19.50;99.90
21787;DHT22;11055;50.870;4.316;2022-07-26T08:55:07;19.50;99.90
21787;DHT22;11055;50.870;4.316;2022-07-26T08:57:33;19.50;99.90
21787;DHT22;11055;50.870;4.316;2022-07-26T09:02:43;19.50;99.90
21787;DHT22;11055;50.870;4.316;2022-07-26T09:05:09;19.60;99.90
21787;DHT22;11055;50.870;4.316;2022-07-26T09:07:35;19.70;99.90
21787;DHT22;11055;50.870;4.316;2022-07-26T09:10:08;19.80;99.90
21787;DHT22;11055;50.870;4.316;2022-07-26T09:12:36;19.90;99.90
21787;DHT22;11055;50.870;4.316;2022-07-26T09:15:02;20.10;99.90
21787;DHT22;11055;50.870;4.316;2022-07-26T09:17:39;20.30;99.90
21787;DHT22;11055;50.870;4.316;2022-07-26T09:22:31;20.20;99.90
21787;DHT22;11055;50.870;4.316;2022-07-26T09:24:57;20.20;99.90
21787;DHT22;11055;50.870;4.316;2022-07-26T09:27:23;20.40;99.90
21787;DHT22;11055;50.870;4.316;2022-07-26T09:29:49;20.60;99.90
21787;DHT22;11055;50.870;4.316;2022-07-26T09:32:19;20.60;99.90
21787;DHT22;11055;50.870;4.316;2022-07-26T09:34:46;20.70;99.90
21787;DHT22;11055;50.870;4.316;2022-07-26T09:37:11;20.80;99.90
21787;DHT22;11055;50.870;4.316;2022-07-26T09:39:56;20.90;99.90
21787;DHT22;11055;50.870;4.316;2022-07-26T09:42:22;20.80;99.90
21787;DHT22;11055;50.870;4.316;2022-07-26T09:44:48;21.00;99.90
21787;DHT22;11055;50.870;4.316;2022-07-26T09:47:14;21.20;99.90
21787;DHT22;11055;50.870;4.316;2022-07-26T09:49:40;21.50;99.90
21787;DHT22;11055;50.870;4.316;2022-07-26T09:52:15;21.40;99.90
21787;DHT22;11055;50.870;4.316;2022-07-26T09:54:41;21.50;99.90
21787;DHT22;11055;50.870;4.316;2022-07-26T09:57:10;21.80;99.90
21787;DHT22;11055;50.870;4.316;2022-07-26T09:59:35;21.90;99.90
21787;DHT22;11055;50.870;4.316;2022-07-26T10:02:01;22.10;99.90
21787;DHT22;11055;50.870;4.316;2022-07-26T10:04:26;22.20;99.90
21787;DHT22;11055;50.870;4.316;2022-07-26T10:06:52;22.50;99.90
21787;DHT22;11055;50.870;4.316;2022-07-26T10:09:18;22.70;99.90
21787;DHT22;11055;50.870;4.316;2022-07-26T10:11:48;22.60;99.90
21787;DHT22;11055;50.870;4.316;2022-07-26T10:16:59;22.70;99.90
21787;DHT22;11055;50.870;4.316;2022-07-26T10:19:37;22.60;99.90
21787;DHT22;11055;50.870;4.316;2022-07-26T10:27:45;22.40;99.90
21787;DHT22;11055;50.870;4.316;2022-07-26T10:32:44;22.10;99.90
21787;DHT22;11055;50.870;4.316;2022-07-26T10:37:57;21.80;99.90
21787;DHT22;11055;50.870;4.316;2022-07-26T10:40:23;21.60;99.90
21787;DHT22;11055;50.870;4.316;2022-07-26T10:43:16;21.60;99.90
21787;DHT22;11055;50.870;4.316;2022-07-26T10:45:42;21.50;99.90
21787;DHT22;11055;50.870;4.316;2022-07-26T10:48:17;21.60;99.90
21787;DHT22;11055;50.870;4.316;2022-07-26T10:50:44;21.60;99.90
21787;DHT22;11055;50.870;4.316;2022-07-26T10:53:15;21.60;99.90
21787;DHT22;11055;50.870;4.316;2022-07-26T10:55:45;21.70;99.90
21787;DHT22;11055;50.870;4.316;2022-07-26T10:58:11;21.90;99.90
21787;DHT22;11055;50.870;4.316;2022-07-26T11:00:37;21.60;99.90
21787;DHT22;11055;50.870;4.316;2022-07-26T11:03:02;21.50;99.90
21787;DHT22;11055;50.870;4.316;2022-07-26T11:05:29;21.60;99.90
21787;DHT22;11055;50.870;4.316;2022-07-26T11:10:21;21.60;99.90
21787;DHT22;11055;50.870;4.316;2022-07-26T11:13:12;21.50;99.90
21787;DHT22;11055;50.870;4.316;2022-07-26T11:15:37;21.80;99.90
21787;DHT22;11055;50.870;4.316;2022-07-26T11:18:06;21.80;99.90
21787;DHT22;11055;50.870;4.316;2022-07-26T11:20:32;21.90;99.90
21787;DHT22;11055;50.870;4.316;2022-07-26T11:22:57;21.80;99.90
21787;DHT22;11055;50.870;4.316;2022-07-26T11:25:23;22.00;99.90
21787;DHT22;11055;50.870;4.316;2022-07-26T11:27:58;22.10;99.90
21787;DHT22;11055;50.870;4.316;2022-07-26T11:30:23;22.20;99.90
21787;DHT22;11055;50.870;4.316;2022-07-26T11:32:52;22.40;99.90
21787;DHT22;11055;50.870;4.316;2022-07-26T11:35:18;22.40;99.90
21787;DHT22;11055;50.870;4.316;2022-07-26T11:37:55;22.50;99.90
21787;DHT22;11055;50.870;4.316;2022-07-26T11:43:05;23.10;99.90
21787;DHT22;11055;50.870;4.316;2022-07-26T11:45:30;22.70;99.90
21787;DHT22;11055;50.870;4.316;2022-07-26T11:47:56;22.50;99.90
21787;DHT22;11055;50.870;4.316;2022-07-26T11:50:22;22.30;99.90
21787;DHT22;11055;50.870;4.316;2022-07-26T11:52:48;22.40;99.90
21787;DHT22;11055;50.870;4.316;2022-07-26T11:55:14;22.20;99.90
21787;DHT22;11055;50.870;4.316;2022-07-26T11:57:39;21.90;99.90
21787;DHT22;11055;50.870;4.316;2022-07-26T12:00:05;21.60;99.90
21787;DHT22;11055;50.870;4.316;2022-07-26T12:02:31;21.80;99.90
21787;DHT22;11055;50.870;4.316;2022-07-26T12:05:16;22.00;99.90
21787;DHT22;11055;50.870;4.316;2022-07-26T12:07:52;22.30;99.90
21787;DHT22;11055;50.870;4.316;2022-07-26T12:10:17;22.30;99.90
21787;DHT22;11055;50.870;4.316;2022-07-26T12:12:43;22.10;99.90
21787;DHT22;11055;50.870;4.316;2022-07-26T12:15:09;22.10;99.90
21787;DHT22;11055;50.870;4.316;2022-07-26T12:17:34;22.20;99.90
21787;DHT22;11055;50.870;4.316;2022-07-26T12:22:56;22.00;99.90
21787;DHT22;11055;50.870;4.316;2022-07-26T12:25:23;21.70;99.90
21787;DHT22;11055;50.870;4.316;2022-07-26T12:27:49;21.60;99.90
21787;DHT22;11055;50.870;4.316;2022-07-26T12:30:15;21.60;99.90
21787;DHT22;11055;50.870;4.316;2022-07-26T12:32:41;21.80;99.90
21787;DHT22;11055;50.870;4.316;2022-07-26T12:35:08;21.80;99.90
21787;DHT22;11055;50.870;4.316;2022-07-26T12:37:52;21.60;99.90
21787;DHT22;11055;50.870;4.316;2022-07-26T12:40:27;21.50;99.90
21787;DHT22;11055;50.870;4.316;2022-07-26T12:42:57;21.30;99.90
21787;DHT22;11055;50.870;4.316;2022-07-26T12:45:23;21.40;99.90
21787;DHT22;11055;50.870;4.316;2022-07-26T12:47:50;21.50;99.90
21787;DHT22;11055;50.870;4.316;2022-07-26T12:50:18;21.60;99.90
21787;DHT22;11055;50.870;4.316;2022-07-26T12:52:45;21.70;99.90
21787;DHT22;11055;50.870;4.316;2022-07-26T12:55:12;21.60;99.90
21787;DHT22;11055;50.870;4.316;2022-07-26T12:57:39;21.60;99.90
21787;DHT22;11055;50.870;4.316;2022-07-26T13:00:05;21.60;99.90
21787;DHT22;11055;50.870;4.316;2022-07-26T13:02:31;21.50;99.90
21787;DHT22;11055;50.870;4.316;2022-07-26T13:04:57;21.30;99.90
21787;DHT22;11055;50.870;4.316;2022-07-26T13:07:22;21.20;99.90
21787;DHT22;11055;50.870;4.316;2022-07-26T13:09:48;21.20;99.90
21787;DHT22;11055;50.870;4.316;2022-07-26T13:12:14;21.00;99.90
21787;DHT22;11055;50.870;4.316;2022-07-26T13:14:40;21.10;99.90
21787;DHT22;11055;50.870;4.316;2022-07-26T13:17:06;21.20;99.90
21787;DHT22;11055;50.870;4.316;2022-07-26T13:19:31;21.30;99.90
21787;DHT22;11055;50.870;4.316;2022-07-26T13:21:57;21.40;99.90
21787;DHT22;11055;50.870;4.316;2022-07-26T13:24:24;21.30;99.90
21787;DHT22;11055;50.870;4.316;2022-07-26T13:26:49;21.00;99.90
21787;DHT22;11055;50.870;4.316;2022-07-26T13:29:15;21.00;99.90
21787;DHT22;11055;50.870;4.316;2022-07-26T13:31:41;20.90;99.90
21787;DHT22;11055;50.870;4.316;2022-07-26T13:34:06;20.80;99.90
21787;DHT22;11055;50.870;4.316;2022-07-26T13:36:32;20.80;99.90
21787;DHT22;11055;50.870;4.316;2022-07-26T13:38:58;20.80;99.90
21787;DHT22;11055;50.870;4.316;2022-07-26T13:41:23;20.70;99.90
21787;DHT22;11055;50.870;4.316;2022-07-26T13:43:49;20.60;99.90
21787;DHT22;11055;50.870;4.316;2022-07-26T13:46:15;20.50;99.90
21787;DHT22;11055;50.870;4.316;2022-07-26T13:48:41;20.60;99.90
21787;DHT22;11055;50.870;4.316;2022-07-26T13:51:06;20.70;99.90
21787;DHT22;11055;50.870;4.316;2022-07-26T13:53:32;20.40;99.90
21787;DHT22;11055;50.870;4.316;2022-07-26T13:55:58;20.50;99.90
21787;DHT22;11055;50.870;4.316;2022-07-26T13:58:23;20.70;99.90
21787;DHT22;11055;50.870;4.316;2022-07-26T14:00:49;20.60;99.90
21787;DHT22;11055;50.870;4.316;2022-07-26T14:03:14;20.60;99.90
21787;DHT22;11055;50.870;4.316;2022-07-26T14:05:40;20.70;99.90
21787;DHT22;11055;50.870;4.316;2022-07-26T14:08:06;20.70;99.90
21787;DHT22;11055;50.870;4.316;2022-07-26T14:10:31;20.70;99.90
21787;DHT22;11055;50.870;4.316;2022-07-26T14:13:01;20.70;99.90
21787;DHT22;11055;50.870;4.316;2022-07-26T14:15:27;20.60;99.90
21787;DHT22;11055;50.870;4.316;2022-07-26T14:17:53;20.90;99.90
21787;DHT22;11055;50.870;4.316;2022-07-26T14:20:19;21.10;99.90
21787;DHT22;11055;50.870;4.316;2022-07-26T14:22:45;21.30;99.90
21787;DHT22;11055;50.870;4.316;2022-07-26T14:25:10;21.30;99.90
21787;DHT22;11055;50.870;4.316;2022-07-26T14:27:36;21.40;99.90
21787;DHT22;11055;50.870;4.316;2022-07-26T14:30:02;21.30;99.90
21787;DHT22;11055;50.870;4.316;2022-07-26T14:32:28;21.30;99.90
21787;DHT22;11055;50.870;4.316;2022-07-26T14:34:53;21.30;99.90
21787;DHT22;11055;50.870;4.316;2022-07-26T14:37:19;21.20;99.90
21787;DHT22;11055;50.870;4.316;2022-07-26T14:39:44;21.20;99.90
21787;DHT22;11055;50.870;4.316;2022-07-26T14:42:10;21.30;99.90
21787;DHT22;11055;50.870;4.316;2022-07-26T14:44:35;21.30;99.90
21787;DHT22;11055;50.870;4.316;2022-07-26T14:47:01;21.10;99.90
21787;DHT22;11055;50.870;4.316;2022-07-26T14:49:26;21.10;99.90
21787;DHT22;11055;50.870;4.316;2022-07-26T14:51:52;21.10;99.90
21787;DHT22;11055;50.870;4.316;2022-07-26T14:54:19;21.10;99.90
21787;DHT22;11055;50.870;4.316;2022-07-26T14:56:45;21.00;99.90
21787;DHT22;11055;50.870;4.316;2022-07-26T14:59:12;21.20;99.90
21787;DHT22;11055;50.870;4.316;2022-07-26T15:01:37;21.30;99.90
21787;DHT22;11055;50.870;4.316;2022-07-26T15:04:03;21.40;99.90
21787;DHT22;11055;50.870;4.316;2022-07-26T15:06:29;21.20;99.90
21787;DHT22;11055;50.870;4.316;2022-07-26T15:08:54;21.30;99.90
21787;DHT22;11055;50.870;4.316;2022-07-26T15:11:20;21.50;99.90
21787;DHT22;11055;50.870;4.316;2022-07-26T15:13:46;21.40;99.90
21787;DHT22;11055;50.870;4.316;2022-07-26T15:16:11;21.50;99.90
21787;DHT22;11055;50.870;4.316;2022-07-26T15:18:37;21.50;99.90
21787;DHT22;11055;50.870;4.316;2022-07-26T15:21:02;21.30;99.90
21787;DHT22;11055;50.870;4.316;2022-07-26T15:23:28;21.20;99.90
21787;DHT22;11055;50.870;4.316;2022-07-26T15:25:53;21.00;99.90
21787;DHT22;11055;50.870;4.316;2022-07-26T15:28:19;21.00;99.90
21787;DHT22;11055;50.870;4.316;2022-07-26T15:30:44;20.90;99.90
21787;DHT22;11055;50.870;4.316;2022-07-26T15:33:10;21.00;99.90
21787;DHT22;11055;50.870;4.316;2022-07-26T15:35:36;21.00;99.90
21787;DHT22;11055;50.870;4.316;2022-07-26T15:38:03;21.10;99.90
21787;DHT22;11055;50.870;4.316;2022-07-26T15:40:28;21.10;99.90
21787;DHT22;11055;50.870;4.316;2022-07-26T15:42:54;21.10;99.90
21787;DHT22;11055;50.870;4.316;2022-07-26T15:45:20;21.10;99.90
21787;DHT22;11055;50.870;4.316;2022-07-26T15:47:45;21.20;99.90
21787;DHT22;11055;50.870;4.316;2022-07-26T15:50:12;21.20;99.90
21787;DHT22;11055;50.870;4.316;2022-07-26T15:52:39;21.30;99.90